createdAt,value
2023-03-03T00:01:20.845Z,50339.58
2023-03-03T00:03:49.413Z,50343.98
2023-03-03T00:06:17.975Z,50345.98
2023-03-03T00:08:46.390Z,50352.38
2023-03-03T00:11:15.253Z,50339.98
2023-03-03T00:13:57.973Z,50360.77
2023-03-03T00:16:31.459Z,50347.98
2023-03-03T00:19:01.347Z,50363.17
2023-03-03T00:21:41.048Z,50349.98
2023-03-03T00:24:20.306Z,50341.18
2023-03-03T00:26:57.675Z,50351.57
2023-03-03T00:29:37.533Z,50345.57
2023-03-03T00:32:15.176Z,50351.57
2023-03-03T00:34:44.561Z,50347.57
2023-03-03T00:37:35.016Z,50351.57
2023-03-03T00:40:26.849Z,50348.77
2023-03-03T00:42:58.140Z,50350.38
2023-03-03T00:45:51.577Z,50352.37
2023-03-03T00:48:30.008Z,50356.37
2023-03-03T00:51:01.131Z,50352.37
2023-03-03T00:53:30.756Z,50351.97
2023-03-03T00:55:59.059Z,50355.17
2023-03-03T00:58:27.797Z,50343.57
2023-03-03T01:00:59.077Z,50367.97
2023-03-03T01:03:47.590Z,50355.57
2023-03-03T01:06:17.190Z,50354.38
2023-03-03T01:08:46.756Z,50369.97
2023-03-03T01:11:24.116Z,50340.38
2023-03-03T01:13:53.546Z,50351.18
2023-03-03T01:16:22.183Z,50354.77
2023-03-03T01:18:52.149Z,50367.57
2023-03-03T01:21:20.307Z,50351.97
2023-03-03T01:23:48.555Z,50363.98
2023-03-03T01:26:16.926Z,50372.77
2023-03-03T01:28:45.115Z,50366.77
2023-03-03T01:31:14.248Z,50365.57
2023-03-03T01:33:42.550Z,50363.17
2023-03-03T01:36:10.801Z,50367.97
2023-03-03T01:38:40.191Z,50361.98
2023-03-03T01:41:08.458Z,50373.97
2023-03-03T01:43:45.885Z,50362.77
2023-03-03T01:46:43.645Z,50355.57
2023-03-03T01:49:31.412Z,50363.17
2023-03-03T01:52:12.301Z,50373.16
2023-03-03T01:54:49.149Z,50362.77
2023-03-03T01:57:26.700Z,50360.37
2023-03-03T01:59:57.726Z,50382.37
2023-03-03T02:02:28.643Z,50373.17
2023-03-03T02:04:57.247Z,50358.77
2023-03-03T02:07:28.374Z,50366.77
2023-03-03T02:10:06.576Z,50373.16
2023-03-03T02:12:38.698Z,50373.17
2023-03-03T02:15:32.417Z,50358.37
2023-03-03T02:18:04.411Z,50373.97
2023-03-03T02:20:32.608Z,50374.37
2023-03-03T02:23:13.646Z,50373.57
2023-03-03T02:25:59.344Z,50353.18
2023-03-03T02:28:32.308Z,50376.37
2023-03-03T02:31:03.915Z,50397.56
2023-03-03T02:33:32.397Z,50371.97
2023-03-03T02:36:00.684Z,50370.37
2023-03-03T02:38:34.149Z,50361.57
2023-03-03T02:41:22.336Z,50375.97
2023-03-03T02:44:05.782Z,50382.77
2023-03-03T02:46:40.631Z,50374.37
2023-03-03T02:49:10.804Z,50386.76
2023-03-03T02:51:40.046Z,50353.57
2023-03-03T02:54:10.131Z,50361.97
2023-03-03T02:56:38.533Z,50368.77
2023-03-03T02:59:07.706Z,50365.17
2023-03-03T03:01:39.921Z,50387.96
2023-03-03T03:04:21.157Z,50374.37
2023-03-03T03:06:52.074Z,50366.37
2023-03-03T03:09:22.662Z,50354.77
2023-03-03T03:11:53.114Z,50371.97
2023-03-03T03:14:24.086Z,50375.16
2023-03-03T03:16:52.595Z,50370.37
2023-03-03T03:19:21.732Z,50368.37
2023-03-03T03:21:51.197Z,50363.97
2023-03-03T03:24:19.724Z,50369.17
2023-03-03T03:26:55.908Z,50363.17
2023-03-03T03:29:24.924Z,50384.76
2023-03-03T03:31:53.212Z,50374.77
2023-03-03T03:34:21.543Z,50365.17
2023-03-03T03:36:50.538Z,50367.17
2023-03-03T03:39:19.125Z,50374.77
2023-03-03T03:41:51.137Z,50361.17
2023-03-03T03:44:19.309Z,50375.96
2023-03-03T03:46:47.614Z,50358.37
2023-03-03T03:49:15.831Z,50361.18
2023-03-03T03:51:44.064Z,50348.38
2023-03-03T03:54:14.375Z,50351.57
2023-03-03T03:56:43.403Z,50364.77
2023-03-03T03:59:12.943Z,50356.77
2023-03-03T04:01:41.185Z,50352.77
2023-03-03T04:04:09.549Z,50368.77
2023-03-03T04:06:37.850Z,50365.97
2023-03-03T04:09:06.721Z,50362.37
2023-03-03T04:11:35.102Z,50359.17
2023-03-03T04:14:03.810Z,50369.97
2023-03-03T04:16:33.139Z,50361.97
2023-03-03T04:19:01.673Z,50348.38
2023-03-03T04:21:30.242Z,50368.77
2023-03-03T04:24:00.028Z,50362.37
2023-03-03T04:26:29.250Z,50365.97
2023-03-03T04:29:00.175Z,50357.97
2023-03-03T04:31:28.776Z,50379.96
2023-03-03T04:33:57.778Z,50367.96
2023-03-03T04:36:27.135Z,50357.57
2023-03-03T04:38:55.403Z,50366.77
2023-03-03T04:41:24.196Z,50365.17
2023-03-03T04:43:52.593Z,50362.77
2023-03-03T04:46:20.935Z,50359.18
2023-03-03T04:48:49.380Z,50361.97
2023-03-03T04:51:18.907Z,50370.37
2023-03-03T04:53:47.553Z,50373.17
2023-03-03T04:56:16.133Z,50363.57
2023-03-03T04:58:44.364Z,50350.77
2023-03-03T05:01:17.076Z,50357.17
2023-03-03T05:03:46.344Z,50361.18
2023-03-03T05:06:14.669Z,50362.77
2023-03-03T05:08:44.379Z,50355.57
2023-03-03T05:11:14.218Z,50367.57
2023-03-03T05:13:42.435Z,50367.57
2023-03-03T05:16:10.797Z,50368.37
2023-03-03T05:18:39.122Z,50354.77
2023-03-03T05:21:07.445Z,50359.57
2023-03-03T05:23:35.762Z,50371.57
2023-03-03T05:26:04.441Z,50368.37
2023-03-03T05:28:34.074Z,50333.98
2023-03-03T05:31:02.402Z,50372.37
2023-03-03T05:33:30.743Z,50362.77
2023-03-03T05:35:58.970Z,50353.18
2023-03-03T05:38:27.244Z,50355.18
2023-03-03T05:40:56.383Z,50353.98
2023-03-03T05:43:24.670Z,50361.57
2023-03-03T05:45:57.352Z,50355.57
2023-03-03T05:48:25.602Z,50357.97
2023-03-03T05:50:55.022Z,50349.17
2023-03-03T05:53:24.067Z,50368.37
2023-03-03T05:55:52.726Z,50355.18
2023-03-03T05:58:21.305Z,50349.98
2023-03-03T06:00:49.574Z,50341.57
2023-03-03T06:03:18.253Z,50347.98
2023-03-03T06:05:46.464Z,50374.37
2023-03-03T06:08:15.154Z,50347.98
2023-03-03T06:10:43.412Z,50364.77
2023-03-03T06:13:12.327Z,50355.18
2023-03-03T06:15:40.827Z,50355.18
2023-03-03T06:18:09.832Z,50355.97
2023-03-03T06:20:38.994Z,50340.38
2023-03-03T06:23:07.756Z,50349.57
2023-03-03T06:25:37.898Z,50343.98
2023-03-03T06:28:06.361Z,50339.18
2023-03-03T06:30:36.073Z,50346.77
2023-03-03T06:33:04.689Z,50335.98
2023-03-03T06:35:33.052Z,50347.98
2023-03-03T06:38:03.765Z,50342.77
2023-03-03T06:40:32.114Z,50357.57
2023-03-03T06:43:02.589Z,50342.38
2023-03-03T06:45:30.970Z,50349.18
2023-03-03T06:47:59.461Z,50331.58
2023-03-03T06:50:27.977Z,50331.98
2023-03-03T06:53:11.988Z,50355.57
2023-03-03T06:55:40.240Z,50342.38
2023-03-03T06:58:20.130Z,50324.78
2023-03-03T07:00:59.233Z,50347.57
2023-03-03T07:03:34.162Z,50341.58
2023-03-03T07:06:14.998Z,50339.18
2023-03-03T07:08:43.463Z,50353.57
2023-03-03T07:11:17.459Z,50331.58
2023-03-03T07:13:50.087Z,50351.57
2023-03-03T07:16:24.671Z,50328.78
2023-03-03T07:18:55.267Z,50337.58
2023-03-03T07:21:31.968Z,50351.18
2023-03-03T07:24:11.077Z,50337.98
2023-03-03T07:26:39.292Z,50335.98
2023-03-03T07:29:23.870Z,50324.78
2023-03-03T07:31:53.735Z,50319.98
2023-03-03T07:34:48.023Z,50326.78
2023-03-03T07:37:35.873Z,50322.79
2023-03-03T07:40:49.956Z,50344.77
2023-03-03T07:43:36.832Z,50331.98
2023-03-03T07:46:11.757Z,50322.79
2023-03-03T07:48:42.589Z,50356.77
2023-03-03T07:51:17.426Z,50346.77
2023-03-03T07:53:46.582Z,50353.57
2023-03-03T07:56:35.493Z,50347.57
2023-03-03T07:59:24.808Z,50356.38
2023-03-03T08:02:01.760Z,50352.77
2023-03-03T08:04:38.207Z,50333.98
2023-03-03T08:07:14.542Z,50349.18
2023-03-03T08:10:03.142Z,50355.97
2023-03-03T08:12:42.897Z,50354.77
2023-03-03T08:15:20.981Z,50346.77
2023-03-03T08:17:51.510Z,50339.98
2023-03-03T08:20:49.736Z,50349.57
2023-03-03T08:23:20.271Z,50339.58
2023-03-03T08:25:50.257Z,50344.38
2023-03-03T08:28:20.218Z,50337.58
2023-03-03T08:30:49.452Z,50335.58
2023-03-03T08:33:18.759Z,50352.77
2023-03-03T08:35:47.754Z,50327.18
2023-03-03T08:38:20.664Z,50340.78
2023-03-03T08:40:49.970Z,50352.77
2023-03-03T08:43:21.928Z,50351.98
2023-03-03T08:45:53.048Z,50339.58
2023-03-03T08:48:24.743Z,50334.77
2023-03-03T08:50:53.965Z,50342.77
2023-03-03T08:53:23.247Z,50325.98
2023-03-03T08:55:51.770Z,50338.38
2023-03-03T08:58:30.373Z,50323.58
2023-03-03T09:01:03.213Z,50334.78
2023-03-03T09:03:32.098Z,50332.77
2023-03-03T09:06:00.343Z,50333.18
2023-03-03T09:08:28.619Z,50351.98
2023-03-03T09:10:56.835Z,50340.77
2023-03-03T09:13:27.182Z,50339.58
2023-03-03T09:15:59.292Z,50345.98
2023-03-03T09:18:39.214Z,50325.18
2023-03-03T09:21:24.236Z,50320.79
2023-03-03T09:24:01.747Z,50335.18
2023-03-03T09:26:38.819Z,50349.17
2023-03-03T09:29:38.874Z,50329.58
2023-03-03T09:32:33.231Z,50319.18
2023-03-03T09:35:36.858Z,50329.58
2023-03-03T09:38:27.650Z,50311.99
2023-03-03T09:41:24.633Z,50315.18
2023-03-03T09:43:55.636Z,50315.98
2023-03-03T09:46:29.771Z,50337.57
2023-03-03T09:49:04.952Z,50345.18
2023-03-03T09:52:00.285Z,50327.98
2023-03-03T09:54:34.091Z,50325.18
2023-03-03T09:57:16.491Z,50320.38
2023-03-03T09:59:53.575Z,50321.58
2023-03-03T10:02:50.592Z,50323.18
2023-03-03T10:05:26.732Z,50324.78
2023-03-03T10:08:17.388Z,50329.18
2023-03-03T10:10:54.282Z,50327.58
2023-03-03T10:13:45.814Z,50334.38
2023-03-03T10:16:23.712Z,50313.19
2023-03-03T10:19:15.353Z,50325.18
2023-03-03T10:22:09.891Z,50333.58
2023-03-03T10:24:56.871Z,50325.59
2023-03-03T10:28:03.033Z,50327.58
2023-03-03T10:31:05.661Z,50328.78
2023-03-03T10:34:03.554Z,50319.18
2023-03-03T10:36:46.552Z,50339.18
2023-03-03T10:39:47.166Z,50333.18
2023-03-03T10:42:40.893Z,50321.58
2023-03-03T10:45:35.489Z,50325.18
2023-03-03T10:48:29.529Z,50321.18
2023-03-03T10:51:15.317Z,50335.98
2023-03-03T10:54:03.033Z,50305.99
2023-03-03T10:57:07.791Z,50307.99
2023-03-03T11:00:15.920Z,50327.58
2023-03-03T11:03:02.537Z,50317.98
2023-03-03T11:06:06.451Z,50332.38
2023-03-03T11:08:44.346Z,50316.39
2023-03-03T11:11:24.865Z,50298.39
2023-03-03T11:14:03.751Z,50321.98
2023-03-03T11:16:51.483Z,50303.18
2023-03-03T11:19:35.926Z,50305.59
2023-03-03T11:22:26.409Z,50301.19
2023-03-03T11:25:06.746Z,50315.59
2023-03-03T11:27:40.938Z,50298.39
2023-03-03T11:30:54.361Z,50306.79
2023-03-03T11:33:38.702Z,50295.99
2023-03-03T11:36:23.549Z,50294.39
2023-03-03T11:38:57.916Z,50302.79
2023-03-03T11:41:41.269Z,50310.79
2023-03-03T11:44:37.900Z,50315.18
2023-03-03T11:47:22.316Z,50285.59
2023-03-03T11:49:59.946Z,50311.18
2023-03-03T11:52:53.413Z,50308.79
2023-03-03T11:55:30.978Z,50313.59
2023-03-03T11:58:23.078Z,50312.79
2023-03-03T12:00:52.784Z,50303.99
2023-03-03T12:03:41.756Z,50299.99
2023-03-03T12:06:25.306Z,50295.20
2023-03-03T12:09:05.523Z,50293.59
2023-03-03T12:11:47.809Z,50314.39
2023-03-03T12:14:54.045Z,50301.19
2023-03-03T12:17:31.895Z,50303.99
2023-03-03T12:20:06.322Z,50290.79
2023-03-03T12:23:04.501Z,50299.59
2023-03-03T12:25:43.286Z,50292.39
2023-03-03T12:28:20.842Z,50305.19
2023-03-03T12:31:23.910Z,50311.59
2023-03-03T12:34:05.396Z,50315.98
2023-03-03T12:37:09.776Z,50285.20
2023-03-03T12:39:54.913Z,50319.59
2023-03-03T12:42:53.823Z,50289.60
2023-03-03T12:45:37.059Z,50318.79
2023-03-03T12:48:21.639Z,50295.20
2023-03-03T12:51:19.112Z,50311.19
2023-03-03T12:54:14.844Z,50285.20
2023-03-03T12:57:09.726Z,50311.19
2023-03-03T12:59:53.189Z,50302.79
2023-03-03T13:02:47.407Z,50304.39
2023-03-03T13:05:27.615Z,50303.19
2023-03-03T13:08:17.907Z,50298.39
2023-03-03T13:10:48.272Z,50294.39
2023-03-03T13:13:25.711Z,50321.58
2023-03-03T13:16:06.177Z,50306.79
2023-03-03T13:18:47.572Z,50303.99
2023-03-03T13:21:38.168Z,50309.99
2023-03-03T13:24:44.019Z,50291.20
2023-03-03T13:27:16.155Z,50310.79
2023-03-03T13:29:59.571Z,50305.19
2023-03-03T13:32:56.467Z,50318.38
2023-03-03T13:35:39.944Z,50295.99
2023-03-03T13:38:28.423Z,50313.99
2023-03-03T13:41:35.026Z,50303.59
2023-03-03T13:44:15.242Z,50323.58
2023-03-03T13:46:53.887Z,50301.19
2023-03-03T13:49:46.518Z,50312.79
2023-03-03T13:52:21.920Z,50301.99
2023-03-03T13:55:08.936Z,50316.38
2023-03-03T13:57:37.160Z,50301.99
2023-03-03T14:00:30.915Z,50334.78
2023-03-03T14:03:05.268Z,50321.98
2023-03-03T14:05:48.671Z,50307.59
2023-03-03T14:08:35.996Z,50304.39
2023-03-03T14:11:22.679Z,50307.99
2023-03-03T14:14:09.859Z,50321.18
2023-03-03T14:16:56.416Z,50321.18
2023-03-03T14:19:43.114Z,50297.99
2023-03-03T14:22:55.906Z,50321.18
2023-03-03T14:25:26.070Z,50309.99
2023-03-03T14:28:02.541Z,50313.99
2023-03-03T14:30:39.830Z,50315.18
2023-03-03T14:33:08.172Z,50315.19
2023-03-03T14:35:44.315Z,50300.39
2023-03-03T14:38:14.163Z,50306.39
2023-03-03T14:40:45.617Z,50331.98
2023-03-03T14:43:19.733Z,50328.78
2023-03-03T14:45:48.056Z,50325.98
2023-03-03T14:48:25.243Z,50316.38
2023-03-03T14:50:53.587Z,50326.78
2023-03-03T14:53:42.249Z,50318.38
2023-03-03T14:56:25.897Z,50303.19
2023-03-03T14:59:17.058Z,50329.58
2023-03-03T15:01:46.038Z,50326.38
2023-03-03T15:04:14.294Z,50329.98
2023-03-03T15:06:46.867Z,50325.98
2023-03-03T15:09:43.187Z,50335.18
2023-03-03T15:12:24.462Z,50325.58
2023-03-03T15:15:06.196Z,50331.58
2023-03-03T15:17:37.218Z,50329.58
2023-03-03T15:20:33.716Z,50317.98
2023-03-03T15:23:26.448Z,50346.38
2023-03-03T15:26:13.276Z,50338.77
2023-03-03T15:29:07.815Z,50323.58
2023-03-03T15:31:41.213Z,50311.18
2023-03-03T15:34:39.484Z,50328.78
2023-03-03T15:37:23.120Z,50341.18
2023-03-03T15:40:23.095Z,50333.18
2023-03-03T15:43:16.070Z,50330.38
2023-03-03T15:45:44.363Z,50331.18
2023-03-03T15:48:43.576Z,50335.98
2023-03-03T15:51:30.267Z,50330.78
2023-03-03T15:54:31.330Z,50339.98
2023-03-03T15:57:16.124Z,50331.98
2023-03-03T15:59:51.252Z,50341.98
2023-03-03T16:02:23.215Z,50333.98
2023-03-03T16:04:54.951Z,50329.58
2023-03-03T16:07:56.101Z,50332.38
2023-03-03T16:10:33.012Z,50340.77
2023-03-03T16:13:41.312Z,50337.98
2023-03-03T16:16:21.444Z,50338.38
2023-03-03T16:18:52.740Z,50325.18
2023-03-03T16:21:32.802Z,50342.77
2023-03-03T16:24:07.507Z,50337.18
2023-03-03T16:27:04.923Z,50353.57
2023-03-03T16:29:45.495Z,50321.98
2023-03-03T16:32:20.049Z,50333.18
2023-03-03T16:35:18.005Z,50335.18
2023-03-03T16:37:52.350Z,50347.18
2023-03-03T16:40:47.532Z,50343.57
2023-03-03T16:44:00.312Z,50346.38
2023-03-03T16:46:41.465Z,50349.98
2023-03-03T16:49:22.473Z,50351.98
2023-03-03T16:52:00.530Z,50348.38
2023-03-03T16:54:54.883Z,50321.59
2023-03-03T16:57:38.914Z,50347.57
2023-03-03T17:00:22.561Z,50337.58
2023-03-03T17:02:56.685Z,50333.57
2023-03-03T17:05:40.052Z,50344.77
2023-03-03T17:08:27.011Z,50337.98
2023-03-03T17:11:27.417Z,50350.77
2023-03-03T17:14:30.206Z,50351.57
2023-03-03T17:17:01.577Z,50360.77
2023-03-03T17:19:48.740Z,50346.38
2023-03-03T17:22:34.005Z,50341.57
2023-03-03T17:25:11.265Z,50351.98
2023-03-03T17:28:04.957Z,50349.98
2023-03-03T17:30:52.123Z,50351.97
2023-03-03T17:33:47.408Z,50346.38
2023-03-03T17:36:28.026Z,50359.17
2023-03-03T17:39:22.329Z,50356.77
2023-03-03T17:42:02.820Z,50350.77
2023-03-03T17:44:46.422Z,50349.98
2023-03-03T17:47:41.227Z,50326.78
2023-03-03T17:50:37.685Z,50360.37
2023-03-03T17:53:30.225Z,50361.57
2023-03-03T17:56:10.752Z,50350.38
2023-03-03T17:58:58.519Z,50345.18
2023-03-03T18:01:54.426Z,50336.38
2023-03-03T18:04:29.009Z,50335.18
2023-03-03T18:07:00.102Z,50330.78
2023-03-03T18:09:49.499Z,50340.77
2023-03-03T18:12:43.222Z,50342.77
2023-03-03T18:15:33.139Z,50341.98
2023-03-03T18:18:29.610Z,50341.18
2023-03-03T18:21:17.647Z,50341.98
2023-03-03T18:23:49.277Z,50344.38
2023-03-03T18:26:42.606Z,50343.98
2023-03-03T18:29:13.998Z,50347.57
2023-03-03T18:31:54.358Z,50349.57
2023-03-03T18:34:22.623Z,50349.98
2023-03-03T18:37:07.902Z,50347.98
2023-03-03T18:40:01.940Z,50364.77
2023-03-03T18:42:44.216Z,50340.38
2023-03-03T18:45:18.341Z,50341.18
2023-03-03T18:48:01.639Z,50348.38
2023-03-03T18:50:32.943Z,50336.78
2023-03-03T18:53:16.672Z,50333.58
2023-03-03T18:55:48.198Z,50353.18
2023-03-03T18:58:16.466Z,50350.38
2023-03-03T19:00:50.096Z,50351.57
2023-03-03T19:03:38.554Z,50354.37
2023-03-03T19:06:10.387Z,50347.57
2023-03-03T19:08:53.982Z,50347.98
2023-03-03T19:11:37.559Z,50340.78
2023-03-03T19:14:21.132Z,50346.77
2023-03-03T19:16:50.631Z,50341.58
2023-03-03T19:19:23.211Z,50341.18
2023-03-03T19:22:22.434Z,50345.18
2023-03-03T19:25:16.282Z,50355.57
2023-03-03T19:28:19.778Z,50337.58
2023-03-03T19:31:02.531Z,50329.18
2023-03-03T19:33:52.489Z,50330.38
2023-03-03T19:36:35.446Z,50340.38
2023-03-03T19:39:26.613Z,50346.38
2023-03-03T19:42:32.682Z,50330.38
2023-03-03T19:45:26.012Z,50337.58
2023-03-03T19:48:15.476Z,50351.17
2023-03-03T19:51:06.589Z,50343.18
2023-03-03T19:54:05.938Z,50335.58
2023-03-03T19:56:43.971Z,50349.98
2023-03-03T19:59:43.801Z,50353.18
2023-03-03T20:02:14.561Z,50345.98
2023-03-03T20:04:56.166Z,50366.37
2023-03-03T20:07:35.238Z,50342.77
2023-03-03T20:10:28.853Z,50335.98
2023-03-03T20:13:03.842Z,50349.98
2023-03-03T20:15:46.468Z,50349.18
2023-03-03T20:18:23.645Z,50350.38
2023-03-03T20:21:04.948Z,50342.78
2023-03-03T20:23:40.090Z,50333.58
2023-03-03T20:26:32.271Z,50357.18
2023-03-03T20:29:10.696Z,50362.37
2023-03-03T20:32:11.292Z,50337.98
2023-03-03T20:35:01.336Z,50345.98
2023-03-03T20:37:35.367Z,50349.18
2023-03-03T20:40:06.326Z,50341.98
2023-03-03T20:43:12.171Z,50353.57
2023-03-03T20:45:52.929Z,50341.57
2023-03-03T20:48:53.049Z,50337.57
2023-03-03T20:51:35.953Z,50354.38
2023-03-03T20:54:20.877Z,50348.77
2023-03-03T20:57:18.630Z,50341.98
2023-03-03T20:59:58.380Z,50347.57
2023-03-03T21:02:35.883Z,50334.38
2023-03-03T21:05:15.806Z,50367.17
2023-03-03T21:08:10.429Z,50351.98
2023-03-03T21:10:41.604Z,50363.98
2023-03-03T21:13:26.227Z,50350.77
2023-03-03T21:16:03.418Z,50353.18
2023-03-03T21:18:32.993Z,50362.37
2023-03-03T21:21:01.862Z,50349.98
2023-03-03T21:23:30.369Z,50335.98
2023-03-03T21:25:59.498Z,50350.77
2023-03-03T21:28:31.976Z,50364.77
2023-03-03T21:31:11.357Z,50343.57
2023-03-03T21:33:55.993Z,50346.77
2023-03-03T21:36:45.668Z,50372.77
2023-03-03T21:39:21.692Z,50348.77
2023-03-03T21:41:52.588Z,50335.58
2023-03-03T21:44:50.010Z,50344.38
2023-03-03T21:47:28.695Z,50349.18
2023-03-03T21:49:56.867Z,50342.77
2023-03-03T21:52:24.987Z,50360.77
2023-03-03T21:54:55.247Z,50341.18
2023-03-03T21:57:27.944Z,50334.38
2023-03-03T21:59:56.272Z,50328.78
2023-03-03T22:02:24.542Z,50335.57
2023-03-03T22:04:52.804Z,50339.98
2023-03-03T22:07:20.966Z,50369.17
2023-03-03T22:09:49.106Z,50343.57
2023-03-03T22:12:17.344Z,50347.18
2023-03-03T22:14:46.674Z,50347.98
2023-03-03T22:17:14.859Z,50350.77
2023-03-03T22:19:43.080Z,50343.57
2023-03-03T22:22:11.254Z,50350.38
2023-03-03T22:24:39.504Z,50329.58
2023-03-03T22:27:08.477Z,50349.98
2023-03-03T22:29:36.767Z,50350.77
2023-03-03T22:32:05.245Z,50342.38
2023-03-03T22:34:33.928Z,50339.18
2023-03-03T22:37:02.700Z,50328.78
2023-03-03T22:39:31.063Z,50353.57
2023-03-03T22:41:59.305Z,50328.38
2023-03-03T22:44:27.672Z,50330.78
2023-03-03T22:46:56.254Z,50348.77
2023-03-03T22:49:24.900Z,50333.98
2023-03-03T22:51:53.345Z,50330.78
2023-03-03T22:54:21.508Z,50343.18
2023-03-03T22:56:49.687Z,50345.57
2023-03-03T22:59:17.902Z,50361.97
2023-03-03T23:01:46.136Z,50327.18
2023-03-03T23:04:14.965Z,50332.38
2023-03-03T23:06:45.063Z,50343.98
2023-03-03T23:09:13.265Z,50354.77
2023-03-03T23:11:41.819Z,50343.57
2023-03-03T23:14:10.061Z,50351.18
2023-03-03T23:16:38.676Z,50333.58
2023-03-03T23:19:06.900Z,50353.18
2023-03-03T23:21:35.162Z,50348.77
2023-03-03T23:24:03.628Z,50343.18
2023-03-03T23:26:31.837Z,50347.57
2023-03-03T23:29:00.028Z,50342.38
2023-03-03T23:31:28.472Z,50340.78
2023-03-03T23:33:57.253Z,50340.78
2023-03-03T23:36:25.561Z,50346.38
2023-03-03T23:38:53.898Z,50351.98
2023-03-03T23:41:22.088Z,50358.37
2023-03-03T23:43:50.274Z,50336.38
2023-03-03T23:46:20.945Z,50339.18
2023-03-03T23:48:49.188Z,50356.38
2023-03-03T23:51:17.346Z,50350.77
2023-03-03T23:53:45.674Z,50354.77
2023-03-03T23:56:14.650Z,50349.18
2023-03-03T23:58:42.887Z,50353.97
